Aviation Digital Data Service (ADDS)

Output produced by METARs form (1116 UTC 24 April 2017)
found at http://www.aviationweather.gov/adds/metars/
 
KGBD 240520Z 2406/2506 16014KT P6SM SCT250 WS015/19045KT 
     FM240900 17017KT P6SM SCT250 WS015/20055KT 
     FM241400 19029G40KT P6SM SCT250 
     FM241800 20018G26KT P6SM FEW250 
     FM250000 19010KT P6SM FEW200 AMD LTD TO CLD VIS AND WIND
       
KGCC 240905Z 2409/2506 34010KT P6SM BKN008 BKN060 
     FM241600 33009KT P6SM BKN100 
     FM250200 05010KT P6SM -SHRA OVC015
       
KGCK 241026Z 2410/2506 19016G24KT P6SM SCT250 WS020/22045KT 
     FM241400 23016G24KT P6SM SCT250 WS020/26035KT 
     FM241500 24016KT P6SM SCT250 
     FM242000 33012KT P6SM SCT250
       
KGCN 240534Z 2406/2506 23010KT P6SM SCT250 
     FM241600 22012G20KT P6SM BKN200 
     FM241800 23020G31KT P6SM BKN120
       
KGDV 240654Z 2407/2506 09009KT 3SM -SN OVC004 
     FM241200 35006KT P6SM VCSH OVC006 
     FM242100 35008KT P6SM BKN022 
     FM250300 05011KT P6SM BKN016
       
KGEG 240524Z 2406/2506 22010KT P6SM SCT060 OVC120 
     FM240700 20011KT P6SM VCSH SCT025 BKN050 OVC080 
     FM241500 19011KT P6SM VCSH OVC025 
     FM241800 22010KT P6SM VCSH BKN035 OVC050
       
TAF KGFA 241106Z 2411/2517 22009KT 9999 SCT090 QNH2954INS 
     BECMG 2423/2424 04009KT 9999 FEW030 BKN060 610606 QNH2956INS 
     BECMG 2502/2503 02009KT 9999 VCSH BKN050 QNH2958INS 
     BECMG 2505/2506 06012G18KT 9000 -SHRA BKN020 610406 QNH2961INS TX12/2423Z TN02/2414Z
       
KGFK 240520Z 2406/2506 06013KT P6SM BKN010 OVC015 
     FM240900 07014KT P6SM OVC015 
     FM241500 07014KT 4SM -RA BKN015 OVC025 
     FM242300 02012KT 5SM -RA BR OVC015
       
KGFL 240520Z 2406/2506 VRB04KT P6SM SCT200
       
KGGG 240526Z 2406/2506 VRB04KT P6SM SKC 
     FM241700 18008KT P6SM SKC
       
KGGW 240525Z 2406/2506 11013KT 6SM -DZ OVC005 
     FM240700 11008KT 5SM BR VCSH OVC005 
     FM241200 VRB05KT P6SM SCT010 OVC024 
     FM250100 06012KT P6SM BKN040
       
KGJT 240526Z 2406/2506 30014KT P6SM SCT200 
     TEMPO 2406/2408 27015G35KT 
     FM240900 30004KT P6SM SCT200 
     FM241100 21005KT P6SM FEW200 
     FM241600 19005KT P6SM BKN150 
     FM241900 22010KT P6SM OVC110 
     FM242100 24014G26KT P6SM OVC090
       
KGKY 240852Z 2409/2506 16005KT P6SM SKC 
     FM241600 17013KT P6SM SCT300
       
KGLD 240956Z 2410/2506 18018KT P6SM SKC WS020/19050KT 
     FM241100 22014G22KT P6SM SCT270 WS020/27035KT 
     FM241200 23013KT P6SM SCT270 
     FM241400 29016G25KT P6SM SCT270 
     FM241700 33016G26KT P6SM FEW250 
     FM242000 33011KT P6SM SCT200 
     FM242300 04007KT P6SM FEW080 BKN150 
     FM250100 07006KT P6SM BKN130
       
KGLH 240520Z 2406/2506 30004KT P6SM SKC 
     FM241500 33012KT P6SM SKC
       
KGLS 240905Z 2409/2506 VRB06KT P6SM SKC 
     FM241800 16009KT P6SM SCT250 
     FM250500 18011KT P6SM FEW015
       
KGMU 240901Z 2409/2506 04014G22KT P6SM -SHRA SCT007 OVC012 
     TEMPO 2409/2412 4SM SHRA BR OVC007 
     FM241200 04018G26KT 3SM SHRA BR OVC007 
     FM241600 04015G25KT 3SM SHRA BR OVC007 
     FM242000 04015G25KT 3SM -SHRA OVC007 
     FM250400 03012G22KT 4SM -SHRA BR OVC007
       
KGNV 240909Z 2409/2506 29010KT P6SM VCSH SCT015 BKN035 
     TEMPO 2410/2412 BKN015 
     FM241300 27012KT P6SM SCT025 BKN040 
     FM241600 27014G21KT P6SM SCT050 
     FM242300 27008KT P6SM SCT030
       
KGON 240835Z 2409/2506 13002KT P6SM BKN250 
     TEMPO 2409/2411 5SM BR SCT002 
     FM241500 18005KT P6SM BKN200 
     FM241800 16007KT P6SM BKN150 
     FM242200 14007KT P6SM BKN120 
     FM250100 07008KT P6SM BKN100
       
KGPT 240520Z 2406/2506 32007KT P6SM SCT150 
     FM241600 33011KT P6SM FEW250 
     FM250000 32005KT P6SM SKC
       
KGRB 240520Z 2406/2506 07010KT P6SM BKN200 
     FM241400 15009KT P6SM BKN200 
     FM242000 14013G22KT P6SM BKN150 
     FM250100 14008KT P6SM BKN150 WS012/16040KT
       
TAF KGRF 2405/2511 VRB06KT 9999 -SHRA BKN030 610509 QNH2985INS 
     BECMG 2415/2416 04009KT 8000 -SHRA BR OVC030 610409 QNH2979INS 
     BECMG 2420/2421 23012G18KT 9999 -SHRA BKN030 610409 QNH2975INS 
     BECMG 2503/2504 20006KT 9999 NSW SCT015 BKN060 610609 QNH2980INS TX11/2423Z TN06/2507Z
       
KGRI 240545Z 2406/2506 17015G22KT P6SM BKN250 WS010/18065KT 
     FM241300 17020G30KT P6SM BKN250 WS010/20060KT 
     FM241600 18015G25KT P6SM BKN250 
     FM241900 21014KT P6SM SCT120 BKN250 
     FM250200 VRB06KT P6SM BKN120
       
TAF KGRK 240800Z 2408/2514 VRB06KT 9999 SKC QNH3000INS 
     BECMG 2413/2414 19010G15KT 9999 FEW250 QNH2980INS 
     BECMG 2500/2501 19009KT 9999 FEW250 QNH2974INS 
     BECMG 2513/2514 19012KT 9999 FEW250 QNH2970INS TX25/2420Z TN08/2411Z
       
KGRR 240530Z 2406/2506 01003KT P6SM SCT250 
     FM241600 10011KT P6SM SCT250
       
TAF AMD KGSB 241101Z 2411/2510 07010KT 8000 BR OVC005 QNH2980INS 
     TEMPO 2411/2412 06010G15KT 4800 -TSRA OVC002CB 
     BECMG 2412/2413 07010KT 8000 -SHRA OVC006 QNH2978INS 
     BECMG 2417/2418 07010KT 8000 -SHRA BKN010 QNH2976INS 
     BECMG 2420/2421 03010KT 9999 NSW OVC015 QNH2960INS 
     BECMG 2423/2424 04010KT 8000 -RA OVC007 QNH2960INS TX18/2417Z TN14/2411Z
       
KGSO 240538Z 2406/2506 05011KT 3SM RA BR OVC005 
     TEMPO 2410/2414 05013G23KT 1SM RA OVC003 
     FM241400 05012G20KT 3SM RA BR OVC004
       
KGSP 240901Z 2409/2506 03012G20KT P6SM -SHRA SCT007 OVC012 
     TEMPO 2409/2412 4SM SHRA BR OVC007 
     FM241200 04012G22KT 3SM SHRA BR OVC007 
     FM241600 04013G22KT 3SM SHRA BR OVC007 
     FM242000 04013G23KT 3SM -SHRA OVC007 
     FM250400 02011KT 4SM -SHRA BR OVC007
       
TAF KGTB 240900Z 2409/2515 04009KT 9999 FEW050 FEW200 QNH3013INS 
     BECMG 2503/2504 07009KT 9999 FEW200 QNH3013INS 
     BECMG 2507/2508 12009KT 9999 FEW150 SCT200 QNH3013INS 
     BECMG 2510/2511 13009KT 9999 FEW030 BKN130 OVC200 QNH3013INS 
     BECMG 2512/2513 13009KT 8000 -RA BKN030 OVC080 620807 QNH3010INS TX15/2421Z TN02/2411Z
       
KGTF 240520Z 2406/2506 22010KT P6SM SCT060 BKN100 
     FM241900 26011KT P6SM VCSH SCT035 BKN060 
     FM250000 34011KT P6SM -SHRA SCT025 OVC040 
     PROB30 2503/2506 -SHRA BKN025
       
KGTR 240709Z 2407/2506 32004KT P6SM OVC045 
     FM241600 34009KT P6SM SKC
       
KGUP 240530Z 2406/2506 22011KT P6SM SCT250 
     FM241500 23015G25KT P6SM FEW150 
     FM241800 24025G35KT P6SM SCT150 
     FM242100 25030G42KT P6SM SCT120
       
TAF KGUS 241100Z 2411/2517 06006KT 9999 SKC QNH2996INS 
     BECMG 2415/2416 08012G18KT 9999 SKC QNH2982INS 
     BECMG 2423/2424 08009KT 9999 FEW050 QNH2982INS 
     BECMG 2505/2506 13009KT 9999 BKN020 QNH2982INS 
     BECMG 2509/2510 13009KT 9999 BKN015 OVC020 QNH2982INS 
     BECMG 2516/2517 15010G15KT 9999 BKN020 OVC025 QNH2975INS TX21/2420Z TN05/2411Z
       
KGWO 241051Z 2411/2506 00000KT 2SM BR SCT002 
     FM241330 32003KT P6SM SKC 
     FM241500 34008KT P6SM SKC
       
KGYY 240900Z 2409/2506 04005KT P6SM SCT250 
     FM241200 11007KT P6SM SCT250 
     FM241800 08010KT P6SM SCT250 
     FM250200 13007KT P6SM BKN250